Time;durP1;ratioP1;P1;durP2;ratioP2;P2;SDS_P1;SDS_P2;PMS_P1;PMS_P2;Temp;Humidity;BMP_temperature;BMP_pressure;BME280_temperature;BME280_humidity;BME280_pressure;Samples;Min_cycle;Max_cycle;Signal;HPM_P1;HPM_P2
2022/04/19 00:00:44;;;;;;;1.95;0.35;;;28.30;93.60;;;;;;5106654;28;20024;-74
2022/04/19 00:03:14;;;;;;;1.60;0.35;;;28.40;93.80;;;;;;5106503;28;20496;-72
2022/04/19 00:05:42;;;;;;;0.50;0.30;;;28.60;94.10;;;;;;5104914;28;20032;-74
2022/04/19 00:08:11;;;;;;;1.13;0.70;;;28.90;93.60;;;;;;5100080;27;20067;-73
2022/04/19 00:10:40;;;;;;;0.63;0.28;;;29.20;92.30;;;;;;5101097;28;20035;-74
2022/04/19 00:13:09;;;;;;;0.60;0.38;;;28.90;92.40;;;;;;5110532;27;20107;-74
2022/04/19 00:15:38;;;;;;;1.08;0.40;;;28.60;93.10;;;;;;5100830;28;20044;-74
2022/04/19 00:18:07;;;;;;;4.45;1.10;;;28.50;92.90;;;;;;5098543;28;20043;-72
2022/04/19 00:20:35;;;;;;;2.05;0.47;;;28.80;93.20;;;;;;5102480;28;21837;-74
2022/04/19 00:23:05;;;;;;;2.88;0.60;;;29.20;93.00;;;;;;5099781;28;20050;-73
2022/04/19 00:25:32;;;;;;;1.17;0.85;;;29.70;91.80;;;;;;5102037;27;20024;-73
2022/04/19 00:28:00;;;;;;;1.70;0.30;;;29.40;91.80;;;;;;5100836;27;20062;-73
2022/04/19 00:30:27;;;;;;;3.10;0.52;;;29.30;92.30;;;;;;5100101;27;20065;-71
2022/04/19 00:32:55;;;;;;;2.78;0.60;;;29.10;92.40;;;;;;5099619;27;20028;-71
2022/04/19 00:35:23;;;;;;;3.05;0.40;;;29.50;92.20;;;;;;5101765;28;20114;-71
2022/04/19 00:37:51;;;;;;;1.10;0.40;;;30.10;91.30;;;;;;5099731;28;20028;-71
2022/04/19 00:40:18;;;;;;;2.00;0.88;;;30.00;91.50;;;;;;5099891;28;20031;-73
2022/04/19 00:42:47;;;;;;;2.38;0.40;;;30.30;91.20;;;;;;5097277;28;22445;-74
2022/04/19 00:45:14;;;;;;;1.05;0.38;;;30.50;91.70;;;;;;5093639;28;20552;-73
2022/04/19 00:47:41;;;;;;;1.67;0.82;;;31.00;91.20;;;;;;5097907;28;20115;-72
2022/04/19 00:50:09;;;;;;;1.00;0.30;;;31.30;90.30;;;;;;5101350;28;20100;-72
2022/04/19 00:52:38;;;;;;;0.32;0.20;;;31.40;90.10;;;;;;5100744;28;20047;-72
2022/04/19 00:55:09;;;;;;;0.40;0.30;;;31.40;90.30;;;;;;5102020;28;20473;-73
2022/04/19 00:57:42;;;;;;;3.20;0.88;;;31.80;90.20;;;;;;5100393;28;20031;-73
2022/04/19 01:00:12;;;;;;;1.02;0.20;;;32.30;90.40;;;;;;5101031;28;20027;-74
2022/04/19 01:02:40;;;;;;;0.73;0.40;;;32.20;88.30;;;;;;5099588;28;22016;-74
2022/04/19 01:05:08;;;;;;;1.30;1.05;;;31.90;88.70;;;;;;5102819;28;20127;-74
2022/04/19 01:07:39;;;;;;;0.50;0.25;;;31.80;89.20;;;;;;5099381;28;20079;-75
2022/04/19 01:10:07;;;;;;;0.90;0.20;;;31.70;89.40;;;;;;5102121;28;20024;-73
2022/04/19 01:15:21;;;;;;;1.52;0.40;;;31.80;89.40;;;;;;5100634;28;20091;-73
2022/04/19 01:17:49;;;;;;;5.15;0.55;;;32.00;89.70;;;;;;5098796;28;20023;-72
2022/04/19 01:20:17;;;;;;;0.40;0.20;;;32.10;88.70;;;;;;5101416;28;20024;-72
2022/04/19 01:22:51;;;;;;;1.27;0.30;;;32.10;88.30;;;;;;5098081;28;20088;-72
2022/04/19 01:25:19;;;;;;;10.33;0.53;;;32.10;87.30;;;;;;5098252;28;20114;-72
2022/04/19 01:27:48;;;;;;;0.40;0.20;;;32.00;87.50;;;;;;5099252;28;20493;-72
2022/04/19 01:30:17;;;;;;;1.65;0.20;;;32.20;88.10;;;;;;5103639;28;20084;-74
2022/04/19 01:32:44;;;;;;;1.25;0.45;;;32.60;87.20;;;;;;5103603;27;20031;-72
2022/04/19 01:35:18;;;;;;;1.05;0.52;;;32.70;88.00;;;;;;5106231;27;20019;-73
2022/04/19 01:37:49;;;;;;;0.40;0.20;;;32.60;87.10;;;;;;5106914;27;20098;-74
2022/04/19 01:40:18;;;;;;;0.95;0.20;;;32.20;87.40;;;;;;5103423;28;20406;-73
2022/04/19 01:42:52;;;;;;;0.55;0.28;;;32.10;86.70;;;;;;5104025;28;20642;-75
2022/04/19 01:45:23;;;;;;;4.63;0.30;;;31.70;87.60;;;;;;5105692;28;20098;-74
2022/04/19 01:47:52;;;;;;;1.08;0.30;;;31.80;86.40;;;;;;5103113;27;20488;-75
2022/04/19 01:50:20;;;;;;;0.32;0.20;;;31.80;86.10;;;;;;5103914;27;20027;-74
2022/04/19 01:52:50;;;;;;;0.15;0.10;;;31.80;86.70;;;;;;5104692;28;20031;-72
2022/04/19 01:55:18;;;;;;;0.43;0.35;;;31.50;85.60;;;;;;5105220;28;20377;-74
2022/04/19 01:57:48;;;;;;;0.57;0.25;;;31.40;85.80;;;;;;5103827;27;20792;-72
2022/04/19 02:00:16;;;;;;;0.75;0.30;;;31.50;87.00;;;;;;5107467;27;20028;-76
2022/04/19 02:02:45;;;;;;;2.58;0.40;;;31.80;86.90;;;;;;5103263;27;20047;-73
2022/04/19 02:05:14;;;;;;;1.77;0.20;;;32.00;85.70;;;;;;5101346;27;20019;-73
2022/04/19 02:07:44;;;;;;;1.98;0.43;;;32.00;85.40;;;;;;5102377;27;20028;-74
2022/04/19 02:10:13;;;;;;;0.28;0.13;;;32.10;87.60;;;;;;5102056;27;20031;-73
2022/04/19 02:12:41;;;;;;;0.40;0.10;;;32.20;84.20;;;;;;5102792;28;20465;-74
2022/04/19 02:15:09;;;;;;;1.45;0.40;;;32.30;85.40;;;;;;5103052;27;20035;-73
2022/04/19 02:17:48;;;;;;;0.90;0.20;;;32.60;84.10;;;;;;5103461;28;20390;-74
2022/04/19 02:20:20;;;;;;;0.38;0.17;;;32.60;83.30;;;;;;5108611;27;20478;-74
2022/04/19 02:22:47;;;;;;;0.35;0.10;;;32.10;84.40;;;;;;5103252;28;20035;-73
2022/04/19 02:25:17;;;;;;;0.30;0.17;;;32.00;85.00;;;;;;5103657;28;20016;-73
2022/04/19 02:27:45;;;;;;;1.52;0.30;;;31.90;86.10;;;;;;5102078;28;20118;-73
2022/04/19 02:30:14;;;;;;;0.32;0.10;;;32.10;84.20;;;;;;5103593;28;20044;-73
2022/04/19 02:32:49;;;;;;;0.90;0.30;;;32.10;85.00;;;;;;5101934;27;20032;-74
2022/04/19 02:35:18;;;;;;;0.38;0.10;;;32.20;86.20;;;;;;5104543;27;20639;-75
2022/04/19 02:37:54;;;;;;;4.60;0.38;;;32.10;85.90;;;;;;5102749;27;20059;-73
2022/04/19 02:40:23;;;;;;;0.75;0.13;;;31.90;85.90;;;;;;5103661;27;20552;-73
2022/04/19 02:42:54;;;;;;;0.50;0.30;;;32.10;86.50;;;;;;5098814;27;20027;-73
2022/04/19 02:45:22;;;;;;;0.80;0.15;;;32.10;84.50;;;;;;5103768;28;20031;-74
2022/04/19 02:48:04;;;;;;;0.85;0.20;;;32.20;84.60;;;;;;5083499;28;20142;-73
2022/04/19 02:50:41;;;;;;;0.10;0.10;;;32.30;83.90;;;;;;5103261;28;20016;-73
2022/04/19 02:53:08;;;;;;;0.10;0.10;;;32.70;85.40;;;;;;5100981;27;20445;-74
2022/04/19 02:55:36;;;;;;;0.40;0.20;;;32.80;84.30;;;;;;5102777;28;20038;-73
2022/04/19 02:58:04;;;;;;;1.38;0.10;;;33.00;82.00;;;;;;5100511;27;20038;-72
2022/04/19 03:00:31;;;;;;;0.60;0.10;;;33.30;81.90;;;;;;5103036;27;20078;-72
2022/04/19 03:02:59;;;;;;;0.50;0.10;;;32.40;81.40;;;;;;5101403;28;20262;-73
2022/04/19 03:05:26;;;;;;;0.47;0.10;;;32.10;82.40;;;;;;5102863;28;20027;-74
2022/04/19 03:07:53;;;;;;;0.90;0.10;;;31.60;83.60;;;;;;5100379;28;20042;-74
2022/04/19 03:10:21;;;;;;;2.03;0.20;;;31.60;82.80;;;;;;5100849;28;20027;-75
2022/04/19 03:12:51;;;;;;;1.33;0.52;;;31.90;82.40;;;;;;5098491;28;20020;-74
2022/04/19 03:15:20;;;;;;;2.80;0.30;;;32.00;81.20;;;;;;5102825;27;20054;-73
2022/04/19 03:17:47;;;;;;;0.25;0.10;;;32.00;81.00;;;;;;5100438;28;20024;-73
2022/04/19 03:20:15;;;;;;;0.43;0.05;;;32.10;80.60;;;;;;5101730;27;20027;-74
2022/04/19 03:28:12;;;;;;;0.32;0.10;;;32.20;79.70;;;;;;5097656;27;20081;-73
2022/04/19 03:30:40;;;;;;;0.57;0.15;;;32.10;79.90;;;;;;5102304;27;20027;-72
2022/04/19 03:33:07;;;;;;;5.00;0.55;;;32.00;79.70;;;;;;5100897;28;20115;-73
2022/04/19 03:35:36;;;;;;;0.57;0.10;;;31.90;80.60;;;;;;5101267;28;20031;-74
2022/04/19 03:38:05;;;;;;;1.70;0.15;;;31.80;80.50;;;;;;5099611;28;20058;-74
2022/04/19 03:40:33;;;;;;;1.48;0.10;;;31.70;80.80;;;;;;5102012;28;20051;-74
2022/04/19 03:43:00;;;;;;;1.05;0.25;;;31.50;80.40;;;;;;5102527;28;20042;-74
2022/04/19 03:45:27;;;;;;;1.17;0.50;;;31.40;81.90;;;;;;5102992;28;20024;-74
2022/04/19 03:47:55;;;;;;;0.40;0.10;;;31.20;81.50;;;;;;5099659;27;20081;-73
2022/04/19 03:50:22;;;;;;;0.68;0.17;;;31.00;80.90;;;;;;5106008;28;20038;-73
2022/04/19 03:52:50;;;;;;;1.63;0.20;;;31.10;81.50;;;;;;5099558;28;20023;-74
2022/04/19 03:55:17;;;;;;;0.38;0.10;;;31.30;81.50;;;;;;5102270;28;20055;-74
2022/04/19 03:57:45;;;;;;;1.90;0.65;;;31.30;81.10;;;;;;5100846;28;20058;-74
2022/04/19 04:00:12;;;;;;;3.75;0.20;;;31.50;81.30;;;;;;5101294;28;20551;-73
2022/04/19 04:02:40;;;;;;;0.85;0.05;;;31.70;80.70;;;;;;5099136;28;20032;-72
2022/04/19 04:05:07;;;;;;;0.10;0.10;;;31.40;79.60;;;;;;5101112;28;20016;-72
2022/04/19 04:07:37;;;;;;;1.08;0.30;;;31.00;81.60;;;;;;5099657;28;20028;-72
2022/04/19 04:10:05;;;;;;;0.40;0.10;;;30.90;81.30;;;;;;5102304;27;21003;-72
2022/04/19 04:12:32;;;;;;;2.00;0.22;;;30.80;81.80;;;;;;5099562;28;20031;-73
2022/04/19 04:15:01;;;;;;;1.00;0.20;;;30.90;81.10;;;;;;5101961;28;20027;-73
2022/04/19 04:17:28;;;;;;;0.75;0.10;;;30.80;81.40;;;;;;5098299;27;20392;-73
2022/04/19 04:19:59;;;;;;;1.42;0.20;;;30.90;81.70;;;;;;5102052;28;20031;-72
2022/04/19 04:22:27;;;;;;;0.73;0.20;;;31.10;81.20;;;;;;5101635;28;20059;-72
2022/04/19 04:24:54;;;;;;;1.85;0.15;;;31.10;81.20;;;;;;5124376;27;20028;-72
2022/04/19 04:27:22;;;;;;;2.60;0.10;;;31.00;81.50;;;;;;5101905;27;20089;-73
2022/04/19 04:29:49;;;;;;;0.13;0.10;;;30.80;81.10;;;;;;5100721;27;20032;-73
2022/04/19 04:32:17;;;;;;;0.73;0.10;;;30.70;81.60;;;;;;5099505;27;20027;-73
2022/04/19 04:34:44;;;;;;;0.73;0.10;;;30.60;81.20;;;;;;5097448;28;20040;-74
2022/04/19 04:37:11;;;;;;;0.85;0.20;;;30.40;81.40;;;;;;5097454;28;20023;-72
2022/04/19 04:39:39;;;;;;;0.82;0.20;;;30.40;81.90;;;;;;5099293;28;20397;-71
2022/04/19 04:42:07;;;;;;;0.88;0.10;;;30.20;82.40;;;;;;5098075;28;21065;-72
2022/04/19 04:44:35;;;;;;;1.35;0.20;;;30.00;81.80;;;;;;5101926;28;20086;-71
2022/04/19 04:49:47;;;;;;;;;;;30.10;81.90;;;;;;5100448;28;20167;-71
2022/04/19 04:52:16;;;;;;;1.23;0.20;;;30.00;82.50;;;;;;5096977;28;19911;-72
2022/04/19 04:54:44;;;;;;;0.47;0.28;;;29.90;82.60;;;;;;5098242;28;20040;-71
2022/04/19 04:57:12;;;;;;;1.10;0.20;;;29.90;81.20;;;;;;5099840;28;20110;-71
2022/04/19 04:59:39;;;;;;;0.68;0.20;;;29.70;82.00;;;;;;5099422;28;20043;-72
2022/04/19 05:02:07;;;;;;;2.90;0.20;;;29.60;82.50;;;;;;5097485;28;20024;-73
2022/04/19 05:04:35;;;;;;;1.05;0.10;;;29.50;82.10;;;;;;5100510;28;20503;-74
2022/04/19 05:07:04;;;;;;;0.35;0.10;;;29.50;82.40;;;;;;5103446;27;20097;-72
2022/04/19 05:09:31;;;;;;;1.27;0.17;;;29.40;83.50;;;;;;5103782;27;20032;-71
2022/04/19 05:11:59;;;;;;;1.27;0.20;;;29.40;84.30;;;;;;5103552;27;20465;-70
2022/04/19 05:14:26;;;;;;;1.05;0.20;;;29.50;84.30;;;;;;5102962;28;20031;-71
2022/04/19 05:16:53;;;;;;;0.63;0.20;;;29.30;83.70;;;;;;5105786;27;20059;-72
2022/04/19 05:19:21;;;;;;;0.30;0.10;;;29.10;83.90;;;;;;5127527;27;20027;-71
2022/04/19 05:21:48;;;;;;;0.90;0.28;;;29.10;84.20;;;;;;5116814;27;20417;-72
2022/04/19 05:24:15;;;;;;;0.57;0.10;;;29.00;84.50;;;;;;5107830;28;20023;-72
2022/04/19 05:26:43;;;;;;;3.22;0.20;;;29.10;84.90;;;;;;5117787;27;20023;-71
2022/04/19 05:29:10;;;;;;;1.83;0.32;;;29.10;84.40;;;;;;5120101;27;20088;-72
2022/04/19 05:31:37;;;;;;;1.02;0.20;;;29.10;84.40;;;;;;5110709;27;20039;-70
2022/04/19 05:34:05;;;;;;;0.22;0.10;;;29.00;84.70;;;;;;5105606;27;20031;-72
2022/04/19 05:36:32;;;;;;;1.65;0.40;;;29.10;85.10;;;;;;5101593;27;20066;-72
2022/04/19 05:39:00;;;;;;;2.38;0.40;;;29.00;86.40;;;;;;5103809;27;20466;-73
2022/04/19 05:41:28;;;;;;;2.75;0.40;;;28.70;86.00;;;;;;5103885;27;20542;-71
2022/04/19 05:43:55;;;;;;;0.38;0.10;;;28.40;86.40;;;;;;5105456;28;20377;-71
2022/04/19 05:46:22;;;;;;;1.15;0.32;;;28.20;87.10;;;;;;5101969;28;20040;-72
2022/04/19 05:48:50;;;;;;;0.30;0.20;;;28.00;87.40;;;;;;5101737;27;20054;-73
2022/04/19 05:51:17;;;;;;;1.52;0.10;;;27.80;88.10;;;;;;5101329;27;20020;-73
2022/04/19 05:53:44;;;;;;;1.75;0.20;;;27.60;88.40;;;;;;5103700;27;20103;-71
2022/04/19 05:56:12;;;;;;;0.22;0.20;;;27.50;88.40;;;;;;5103754;27;20101;-71
2022/04/19 05:58:39;;;;;;;2.58;0.30;;;27.40;88.00;;;;;;5104752;27;20167;-72
2022/04/19 06:01:07;;;;;;;1.50;0.35;;;27.40;88.20;;;;;;5101925;27;20054;-71
2022/04/19 06:06:19;;;;;;;1.25;0.17;;;27.20;88.60;;;;;;5112311;28;20034;-74
2022/04/19 06:08:47;;;;;;;0.52;0.10;;;27.20;88.90;;;;;;5110588;28;20032;-74
2022/04/19 06:11:14;;;;;;;1.55;0.90;;;27.20;88.30;;;;;;5114370;27;20478;-73
2022/04/19 06:13:42;;;;;;;3.40;0.90;;;27.00;88.90;;;;;;5117189;27;20035;-74
2022/04/19 06:16:09;;;;;;;1.25;0.50;;;27.00;88.70;;;;;;5108586;28;20028;-73
2022/04/19 06:18:37;;;;;;;1.42;0.50;;;27.00;89.30;;;;;;5112394;28;20088;-73
2022/04/19 06:21:05;;;;;;;2.58;0.57;;;26.90;89.30;;;;;;5111163;27;23223;-74
2022/04/19 06:23:34;;;;;;;2.03;0.35;;;26.90;90.00;;;;;;5110954;28;20028;-74
2022/04/19 06:26:03;;;;;;;4.00;0.28;;;26.80;90.00;;;;;;5107348;27;20118;-73
2022/04/19 06:28:30;;;;;;;1.48;0.30;;;26.80;90.20;;;;;;5109051;27;20526;-75
2022/04/19 06:30:58;;;;;;;2.08;0.50;;;26.70;90.30;;;;;;5110814;27;20030;-74
2022/04/19 06:33:25;;;;;;;0.95;0.22;;;26.70;90.30;;;;;;5119667;27;20043;-74
2022/04/19 06:35:52;;;;;;;1.73;0.30;;;26.60;90.30;;;;;;5109950;28;20023;-73
2022/04/19 06:38:19;;;;;;;0.70;0.30;;;26.60;90.40;;;;;;5119517;27;20031;-73
2022/04/19 06:40:50;;;;;;;1.17;0.22;;;26.60;90.40;;;;;;5112218;28;20031;-71
2022/04/19 06:43:18;;;;;;;1.65;0.68;;;26.50;90.50;;;;;;5092057;28;20483;-73
2022/04/19 06:45:45;;;;;;;0.45;0.10;;;26.50;90.60;;;;;;5109037;28;20027;-73
2022/04/19 06:48:12;;;;;;;0.68;0.20;;;26.50;90.70;;;;;;5108172;28;20051;-74
2022/04/19 06:50:40;;;;;;;1.65;0.10;;;26.30;90.80;;;;;;5108317;28;20489;-74
2022/04/19 06:53:08;;;;;;;1.75;0.13;;;26.30;90.80;;;;;;5109756;28;20027;-72
2022/04/19 06:55:35;;;;;;;2.20;0.20;;;26.20;90.90;;;;;;5110070;28;20027;-73
2022/04/19 06:58:02;;;;;;;0.32;0.10;;;26.20;90.80;;;;;;5119965;27;20039;-73
2022/04/19 07:00:30;;;;;;;1.50;0.20;;;26.20;90.90;;;;;;5112490;28;20027;-74
2022/04/19 07:02:57;;;;;;;0.75;0.25;;;26.10;91.00;;;;;;5104426;27;20051;-73
2022/04/19 07:05:24;;;;;;;3.80;1.30;;;26.00;91.20;;;;;;5104818;28;20474;-75
2022/04/19 07:07:52;;;;;;;1.08;0.20;;;26.00;91.20;;;;;;5110257;28;20374;-72
2022/04/19 07:10:19;;;;;;;1.73;0.50;;;26.00;91.30;;;;;;5103239;28;20035;-73
2022/04/19 07:12:47;;;;;;;0.90;0.30;;;25.90;91.40;;;;;;5105602;27;20023;-72
2022/04/19 07:15:15;;;;;;;1.80;0.40;;;25.90;91.50;;;;;;5109940;28;20031;-73
2022/04/19 07:17:43;;;;;;;1.17;0.20;;;25.80;91.60;;;;;;5104562;28;20024;-73
2022/04/19 07:28:27;;;;;;;3.03;0.30;;;25.70;91.90;;;;;;5106442;28;20046;-74
2022/04/19 07:30:55;;;;;;;1.75;0.30;;;25.60;92.00;;;;;;5108585;28;20478;-74
2022/04/19 07:33:22;;;;;;;0.95;0.30;;;25.60;92.00;;;;;;5100203;28;20512;-72
2022/04/19 07:35:54;;;;;;;3.08;0.30;;;25.50;92.10;;;;;;5107583;28;20047;-72
2022/04/19 07:38:23;;;;;;;2.03;0.30;;;25.50;92.10;;;;;;5103939;28;20028;-72
2022/04/19 07:40:50;;;;;;;2.00;0.55;;;25.50;92.10;;;;;;5110665;28;20114;-74
2022/04/19 07:43:18;;;;;;;1.55;0.50;;;25.50;92.20;;;;;;5116568;27;20032;-73
2022/04/19 07:45:45;;;;;;;2.63;0.60;;;25.40;92.30;;;;;;5107279;27;20024;-73
2022/04/19 07:48:12;;;;;;;1.25;0.60;;;25.40;92.20;;;;;;5121136;27;20086;-72
2022/04/19 07:50:40;;;;;;;1.42;0.40;;;25.30;92.30;;;;;;5104554;28;20035;-71
2022/04/19 07:53:07;;;;;;;1.38;0.30;;;25.30;92.20;;;;;;5107066;28;20081;-73
2022/04/19 07:55:34;;;;;;;1.02;0.52;;;25.20;92.30;;;;;;5108890;28;20047;-73
2022/04/19 07:58:02;;;;;;;1.02;0.30;;;25.20;92.00;;;;;;5108773;27;20385;-73
2022/04/19 08:00:30;;;;;;;1.92;0.60;;;25.20;92.20;;;;;;5109764;28;20032;-75
2022/04/19 08:02:58;;;;;;;1.27;0.45;;;25.20;92.10;;;;;;5102621;28;20055;-73
2022/04/19 08:05:26;;;;;;;2.47;0.50;;;25.20;91.80;;;;;;5102747;28;20030;-73
2022/04/19 08:07:53;;;;;;;3.60;0.40;;;25.10;91.80;;;;;;5098275;28;20035;-72
2022/04/19 08:10:21;;;;;;;1.20;0.32;;;25.10;91.70;;;;;;5105533;27;20027;-72
2022/04/19 08:12:49;;;;;;;2.17;0.52;;;25.10;91.70;;;;;;5103325;28;20433;-72
2022/04/19 08:15:18;;;;;;;1.88;0.80;;;25.10;91.70;;;;;;5098006;28;20023;-72
2022/04/19 08:17:45;;;;;;;0.85;0.30;;;25.00;91.80;;;;;;5107536;28;20059;-72
2022/04/19 08:20:13;;;;;;;0.30;0.20;;;25.00;91.90;;;;;;5104555;28;20058;-72
2022/04/19 08:22:42;;;;;;;1.15;0.20;;;25.00;91.90;;;;;;5108797;28;20512;-72
2022/04/19 08:25:10;;;;;;;1.42;0.30;;;25.00;92.10;;;;;;5109143;28;20019;-72
2022/04/19 08:27:42;;;;;;;1.70;0.40;;;25.00;92.00;;;;;;5095219;28;20530;-75
2022/04/19 08:30:10;;;;;;;0.28;0.20;;;24.90;92.10;;;;;;5108693;28;20088;-73
2022/04/19 08:32:37;;;;;;;1.65;0.30;;;24.90;92.50;;;;;;5105845;28;20072;-74
2022/04/19 08:35:06;;;;;;;3.78;0.80;;;24.90;92.20;;;;;;5112103;28;20023;-71
2022/04/19 08:37:36;;;;;;;0.85;0.30;;;24.80;92.40;;;;;;5102412;28;20089;-72
2022/04/19 08:40:09;;;;;;;2.10;0.50;;;24.70;92.40;;;;;;5104334;28;20470;-73
2022/04/19 08:42:38;;;;;;;0.98;0.65;;;24.70;92.50;;;;;;5108027;28;20057;-73
2022/04/19 08:45:09;;;;;;;2.13;1.30;;;24.60;92.70;;;;;;5111336;28;20027;-72
2022/04/19 08:47:44;;;;;;;3.25;2.05;;;24.60;92.80;;;;;;5108710;28;20120;-72
2022/04/19 08:50:15;;;;;;;5.22;1.52;;;24.50;92.90;;;;;;5095710;28;20050;-73
2022/04/19 08:52:43;;;;;;;1.98;1.17;;;24.50;92.80;;;;;;5094612;28;20057;-73
2022/04/19 08:57:57;;;;;;;2.70;1.02;;;24.40;93.00;;;;;;5120548;28;20472;-73
2022/04/19 09:00:25;;;;;;;4.65;0.95;;;24.40;93.00;;;;;;5107959;28;20088;-73
2022/04/19 09:02:55;;;;;;;3.58;0.70;;;24.40;92.90;;;;;;5106756;28;20039;-73
2022/04/19 09:05:26;;;;;;;2.00;0.40;;;24.40;93.10;;;;;;5110094;28;20139;-74
2022/04/19 09:07:58;;;;;;;0.68;0.30;;;24.30;93.00;;;;;;5109382;28;20039;-73
2022/04/19 09:10:32;;;;;;;0.63;0.20;;;24.30;93.00;;;;;;5105152;28;20031;-73
2022/04/19 09:13:07;;;;;;;1.38;0.30;;;24.30;92.90;;;;;;5098916;28;20410;-73
2022/04/19 09:15:36;;;;;;;;;;;24.40;93.00;;;;;;5105321;28;20030;-72
2022/04/19 09:18:26;;;;;;;1.85;0.43;;;24.30;92.90;;;;;;5099992;28;19976;-72
2022/04/19 09:20:54;;;;;;;2.38;0.82;;;24.30;93.00;;;;;;5098608;28;20024;-72
2022/04/19 09:23:22;;;;;;;2.38;1.05;;;24.20;93.10;;;;;;5102689;28;20381;-72
2022/04/19 09:25:58;;;;;;;2.88;0.93;;;24.20;93.30;;;;;;5100059;28;20347;-72
2022/04/19 09:28:25;;;;;;;;;;;24.10;93.60;;;;;;5101413;28;20471;-72
2022/04/19 09:30:57;;;;;;;2.45;0.50;;;24.00;94.10;;;;;;5100201;28;20273;-74
2022/04/19 09:33:26;;;;;;;2.20;0.52;;;23.90;94.70;;;;;;5111393;28;20034;-73
2022/04/19 09:35:56;;;;;;;1.42;0.50;;;23.80;95.50;;;;;;5097955;28;20028;-75
2022/04/19 09:38:46;;;;;;;0.98;0.40;;;23.80;95.90;;;;;;5101285;28;20664;-73
2022/04/19 09:41:29;;;;;;;2.72;0.82;;;23.70;96.60;;;;;;5096906;28;20031;-74
2022/04/19 09:44:25;;;;;;;1.77;0.55;;;23.60;96.90;;;;;;5097098;28;20047;-74
2022/04/19 09:47:10;;;;;;;2.58;0.73;;;23.50;97.20;;;;;;5086244;28;20044;-73
2022/04/19 09:49:51;;;;;;;2.13;0.45;;;23.50;97.70;;;;;;5103073;28;20463;-73
2022/04/19 09:52:24;;;;;;;0.70;0.40;;;23.40;98.00;;;;;;5105001;28;20032;-73
2022/04/19 09:55:08;;;;;;;1.50;0.40;;;23.40;98.30;;;;;;5102889;28;20035;-73
2022/04/19 09:57:40;;;;;;;1.85;0.40;;;23.30;98.50;;;;;;5107483;27;20110;-73
2022/04/19 10:00:10;;;;;;;1.42;0.52;;;23.30;98.70;;;;;;5102757;27;20130;-74
2022/04/19 10:08:11;;;;;;;3.72;0.30;;;23.20;99.20;;;;;;5104332;28;20042;-74
2022/04/19 10:10:39;;;;;;;2.80;0.60;;;23.20;99.30;;;;;;5106174;28;20034;-73
2022/04/19 10:13:07;;;;;;;1.08;0.30;;;23.20;99.50;;;;;;5109114;27;20027;-71
2022/04/19 10:15:38;;;;;;;3.15;0.57;;;23.10;99.60;;;;;;5109944;28;20490;-74
2022/04/19 10:18:06;;;;;;;2.30;0.50;;;23.10;99.80;;;;;;5104266;27;20029;-74
2022/04/19 10:20:55;;;;;;;1.70;0.50;;;23.10;99.90;;;;;;5100218;28;20042;-74
2022/04/19 10:23:33;;;;;;;2.55;0.50;;;23.10;99.90;;;;;;5129110;27;20054;-72
2022/04/19 10:26:19;;;;;;;1.25;0.50;;;23.00;99.90;;;;;;5111721;27;20037;-73
2022/04/19 10:28:52;;;;;;;2.20;0.38;;;23.00;99.90;;;;;;5110551;28;20043;-74
2022/04/19 10:31:35;;;;;;;1.67;0.75;;;23.00;99.90;;;;;;5109688;28;20034;-73
2022/04/19 10:34:03;;;;;;;1.27;0.70;;;22.90;99.90;;;;;;5110582;28;20023;-75
2022/04/19 10:36:42;;;;;;;4.63;1.10;;;22.90;99.90;;;;;;5109607;28;20355;-73
2022/04/19 10:39:15;;;;;;;1.23;0.50;;;22.90;99.90;;;;;;5113420;28;20027;-74
2022/04/19 10:41:55;;;;;;;2.22;0.65;;;22.90;99.90;;;;;;5111767;27;20032;-72
2022/04/19 10:44:41;;;;;;;1.65;1.33;;;22.90;99.90;;;;;;5110515;28;20079;-73
2022/04/19 10:47:13;;;;;;;1.63;0.60;;;22.80;99.90;;;;;;5115945;27;20047;-72
2022/04/19 10:50:08;;;;;;;1.83;0.60;;;22.80;99.90;;;;;;5106853;28;20046;-73
2022/04/19 10:52:42;;;;;;;2.20;0.40;;;22.80;99.90;;;;;;5106243;28;20020;-74
2022/04/19 10:55:10;;;;;;;2.45;0.85;;;22.80;99.90;;;;;;5112203;28;20023;-73
2022/04/19 11:00:27;;;;;;;0.88;0.20;;;22.60;97.40;;;;;;5102703;28;20164;-74
2022/04/19 11:03:00;;;;;;;0.85;0.40;;;21.70;99.20;;;;;;5108249;27;20024;-73
2022/04/19 11:05:47;;;;;;;4.15;0.25;;;20.40;99.90;;;;;;5110620;28;20552;-75
2022/04/19 11:08:26;;;;;;;3.50;0.50;;;19.40;99.90;;;;;;5117145;27;20047;-73
2022/04/19 11:11:22;;;;;;;3.95;0.40;;;18.80;99.90;;;;;;5094290;28;20038;-74
2022/04/19 11:14:35;;;;;;;4.50;0.60;;;18.40;99.90;;;;;;5111579;28;20059;-73
2022/04/19 11:17:21;;;;;;;1.83;0.40;;;18.10;99.90;;;;;;5109687;27;20497;-72
2022/04/19 11:20:09;;;;;;;2.55;0.50;;;18.00;99.90;;;;;;5106818;28;20046;-73
2022/04/19 11:22:53;;;;;;;4.95;0.50;;;18.00;99.90;;;;;;5103530;28;20039;-73
2022/04/19 11:25:42;;;;;;;2.17;0.95;;;17.90;99.90;;;;;;5111876;28;20092;-73
2022/04/19 11:28:13;;;;;;;1.60;0.40;;;17.70;99.90;;;;;;5109716;27;20027;-73
2022/04/19 11:30:55;;;;;;;4.65;0.60;;;17.60;99.90;;;;;;5111011;28;20055;-71
2022/04/19 11:33:24;;;;;;;1.73;0.55;;;17.60;99.90;;;;;;5104191;27;20716;-71
2022/04/19 11:36:13;;;;;;;1.33;0.40;;;17.60;99.90;;;;;;5103502;27;20027;-72
2022/04/19 11:38:42;;;;;;;1.05;0.40;;;17.60;99.90;;;;;;5102199;28;20066;-73
2022/04/19 11:47:02;;;;;;;5.13;0.63;;;17.50;99.90;;;;;;5046638;28;20052;-74
2022/04/19 11:49:38;;;;;;;1.80;0.35;;;17.70;99.90;;;;;;5025376;28;20421;-77
2022/04/19 11:52:11;;;;;;;2.45;0.40;;;17.70;99.90;;;;;;5079741;28;20088;-75
2022/04/19 11:54:39;;;;;;;3.70;0.50;;;17.80;99.90;;;;;;5110035;28;20085;-76
2022/04/19 11:57:09;;;;;;;4.95;0.52;;;17.80;99.90;;;;;;5111551;27;20114;-74
2022/04/19 11:59:41;;;;;;;3.58;0.82;;;17.70;99.90;;;;;;5101092;27;20028;-72
2022/04/19 12:02:18;;;;;;;3.78;1.08;;;17.60;99.90;;;;;;5113656;27;20031;-75
2022/04/19 12:04:53;;;;;;;1.33;0.50;;;17.50;99.90;;;;;;5107551;28;20381;-74
2022/04/19 12:07:21;;;;;;;3.13;1.58;;;17.40;99.90;;;;;;5109477;28;20031;-73
2022/04/19 12:09:51;;;;;;;2.63;0.60;;;17.40;99.90;;;;;;5107329;27;20082;-73
2022/04/19 12:12:19;;;;;;;1.00;0.30;;;17.30;99.90;;;;;;5106801;28;20449;-72
2022/04/19 12:14:52;;;;;;;1.17;0.32;;;17.40;99.90;;;;;;5106759;27;20036;-72
2022/04/19 12:17:22;;;;;;;2.00;0.57;;;17.30;99.90;;;;;;5109994;27;20027;-73
2022/04/19 12:20:00;;;;;;;1.65;0.57;;;17.20;99.90;;;;;;5102142;28;20482;-72
2022/04/19 12:22:27;;;;;;;2.97;1.17;;;17.20;99.90;;;;;;5110604;27;20030;-74
2022/04/19 12:24:58;;;;;;;1.05;0.63;;;17.20;99.90;;;;;;5110855;28;20023;-73
2022/04/19 12:27:31;;;;;;;1.73;0.80;;;17.20;99.90;;;;;;5106918;28;20482;-74
2022/04/19 12:30:11;;;;;;;2.25;0.50;;;17.30;99.90;;;;;;5109275;28;20043;-74
2022/04/19 12:32:52;;;;;;;2.65;0.65;;;17.30;99.90;;;;;;5123655;27;20055;-72
2022/04/19 12:35:25;;;;;;;0.73;0.38;;;17.20;99.90;;;;;;5109951;28;20032;-72
2022/04/19 12:38:13;;;;;;;1.92;0.40;;;17.20;99.90;;;;;;5108761;28;20107;-72
2022/04/19 12:40:47;;;;;;;1.58;0.50;;;17.20;99.90;;;;;;5107773;28;20038;-73
2022/04/19 12:43:15;;;;;;;3.92;0.30;;;17.10;99.90;;;;;;5105559;28;20028;-73
2022/04/19 12:45:45;;;;;;;3.30;0.30;;;17.10;99.90;;;;;;5109458;28;20034;-72
2022/04/19 12:48:24;;;;;;;1.33;0.52;;;17.00;99.90;;;;;;5110365;28;20765;-73
2022/04/19 12:51:01;;;;;;;1.73;0.65;;;16.90;99.90;;;;;;5108225;28;20126;-74
2022/04/19 12:53:29;;;;;;;1.75;0.93;;;16.90;99.90;;;;;;5099189;28;20042;-75
2022/04/19 12:59:18;;;;;;;1.25;0.60;;;16.80;99.90;;;;;;5100994;28;20081;-73
2022/04/19 13:01:45;;;;;;;3.63;0.65;;;16.80;99.90;;;;;;5106274;28;20040;-73
2022/04/19 13:04:12;;;;;;;1.50;0.60;;;16.70;99.90;;;;;;5101046;28;20560;-73
2022/04/19 13:12:17;;;;;;;1.10;0.30;;;16.70;99.90;;;;;;5097816;28;20344;-73
2022/04/19 13:14:46;;;;;;;1.10;0.40;;;16.70;99.90;;;;;;5099691;28;20103;-73
2022/04/19 13:17:13;;;;;;;3.08;0.43;;;16.80;99.90;;;;;;5107442;28;20023;-72
2022/04/19 13:19:42;;;;;;;1.25;0.40;;;16.80;99.90;;;;;;5107702;28;20028;-72
2022/04/19 13:22:10;;;;;;;5.03;0.63;;;16.90;99.90;;;;;;5118644;28;20083;-73
2022/04/19 13:24:39;;;;;;;1.25;0.43;;;16.90;99.90;;;;;;5114437;28;20024;-72
2022/04/19 13:27:07;;;;;;;2.25;0.40;;;16.80;99.90;;;;;;5107085;28;20034;-74
2022/04/19 13:29:39;;;;;;;1.27;0.40;;;16.80;99.90;;;;;;5105670;27;20036;-73
2022/04/19 13:32:07;;;;;;;0.73;0.35;;;16.80;99.90;;;;;;5105737;27;20119;-73
2022/04/19 13:34:35;;;;;;;3.55;0.40;;;16.80;99.90;;;;;;5100327;28;20042;-73
2022/04/19 13:37:03;;;;;;;1.10;0.50;;;16.80;99.90;;;;;;5111117;27;20026;-73
2022/04/19 13:39:31;;;;;;;3.30;0.88;;;16.70;99.90;;;;;;5113350;28;20027;-72
2022/04/19 13:41:58;;;;;;;2.35;1.20;;;16.70;99.90;;;;;;5110598;28;20032;-74
2022/04/19 13:44:26;;;;;;;2.05;1.08;;;16.70;99.90;;;;;;5112339;28;20028;-72
2022/04/19 13:46:59;;;;;;;2.67;1.20;;;16.60;99.90;;;;;;5112014;27;20120;-72
2022/04/19 13:49:28;;;;;;;2.15;1.30;;;16.60;99.90;;;;;;5111962;28;20032;-74
2022/04/19 13:51:58;;;;;;;1.50;0.68;;;16.60;99.90;;;;;;5112023;28;20028;-73